New Auburn, Minnesota
Current Conditions -  °F | °C
As of 8:14 PM on Friday 19 Dec 2014 (Local Time) from KGYL Reporting Station
Haze Haze  
Wind Chill: 26°   Ceiling: 900
Heat Index: 32°   Visibility: 5mi
Dew Point: 31°   Wind: 7mph
Humidity: 95%   Direction: 130°SE
Pressure: 30.14"   Gusts: NA
Location:  44.67°N, 94.23°W
Report Text: KGYL 200214Z AUTO 13006KT 5SM BR BKN009 BKN014 OVC020 00/M01 A3014 RMK AO2 T00001007
Loading
Personal Weather Stations






























Interactive Weather Map New forecast layout! Learn more

10-Day Weather Forecast

Advertisements
Track Severe Weather on mobile